createdAt,value
2022-12-16T00:01:48.531Z,21.17
2022-12-16T00:04:17.600Z,21.17
2022-12-16T00:06:45.328Z,21.17
2022-12-16T00:26:45.223Z,21.13
2022-12-16T00:29:12.882Z,21.14
2022-12-16T00:31:40.695Z,21.13
2022-12-16T00:34:08.419Z,21.13
2022-12-16T00:36:36.019Z,21.12
2022-12-16T00:50:04.888Z,21.16
2022-12-16T00:52:33.983Z,21.18
2022-12-16T00:58:23.143Z,21.16
2022-12-16T01:00:52.463Z,21.15
2022-12-16T01:03:22.017Z,21.15
2022-12-16T01:05:49.881Z,21.13
2022-12-16T01:08:19.611Z,21.11
2022-12-16T01:10:50.965Z,21.12
2022-12-16T01:13:18.586Z,21.10
2022-12-16T01:15:46.229Z,21.11
2022-12-16T01:18:14.286Z,21.10
2022-12-16T01:20:41.934Z,21.10
2022-12-16T01:23:09.510Z,21.09
2022-12-16T01:32:42.635Z,21.08
2022-12-16T01:35:29.553Z,21.09
2022-12-16T01:37:58.176Z,21.07
2022-12-16T01:47:21.884Z,21.07
2022-12-16T01:49:51.522Z,21.08
2022-12-16T01:52:21.067Z,21.11
2022-12-16T01:58:21.108Z,21.12
2022-12-16T02:00:48.728Z,21.12
2022-12-16T02:03:16.556Z,21.12
2022-12-16T02:05:45.914Z,21.13
2022-12-16T02:08:14.316Z,21.12
2022-12-16T02:10:47.294Z,21.11
2022-12-16T02:13:18.276Z,21.09
2022-12-16T02:15:46.762Z,21.08
2022-12-16T02:18:15.923Z,21.07
2022-12-16T02:21:01.221Z,21.07
2022-12-16T02:27:17.012Z,21.06
2022-12-16T02:30:02.283Z,21.06
2022-12-16T02:32:31.766Z,21.05
2022-12-16T02:35:00.389Z,21.06
2022-12-16T02:37:32.913Z,21.06
2022-12-16T02:44:03.854Z,21.05
2022-12-16T02:46:32.062Z,21.04
2022-12-16T02:49:06.910Z,21.04
2022-12-16T02:51:34.540Z,21.04
2022-12-16T02:58:04.181Z,21.04
2022-12-16T03:00:33.933Z,21.04
2022-12-16T03:03:02.093Z,21.08
2022-12-16T03:05:32.235Z,21.09
2022-12-16T03:08:00.592Z,21.09
2022-12-16T03:14:00.358Z,21.11
2022-12-16T03:16:28.637Z,21.10
2022-12-16T03:18:56.678Z,21.10
2022-12-16T03:21:26.596Z,21.11
2022-12-16T03:24:03.369Z,21.08
2022-12-16T03:26:32.085Z,21.08
2022-12-16T03:29:00.332Z,21.06
2022-12-16T03:31:30.689Z,21.06
2022-12-16T03:33:58.697Z,21.05
2022-12-16T03:36:27.825Z,21.05
2022-12-16T03:46:37.053Z,21.05
2022-12-16T03:49:04.715Z,21.05
2022-12-16T03:51:33.685Z,21.05
2022-12-16T04:04:37.151Z,21.05
2022-12-16T04:07:25.969Z,21.06
2022-12-16T04:10:30.942Z,21.06
2022-12-16T04:13:15.941Z,21.07
2022-12-16T04:16:01.420Z,21.09
2022-12-16T04:18:46.512Z,21.10
2022-12-16T04:21:31.810Z,21.11
2022-12-16T04:27:29.423Z,21.12
2022-12-16T04:30:14.582Z,21.12
2022-12-16T04:32:59.666Z,21.11
2022-12-16T04:35:44.656Z,21.11
2022-12-16T04:38:41.242Z,21.09
2022-12-16T04:41:27.831Z,21.09
2022-12-16T04:44:13.219Z,21.08
2022-12-16T04:46:58.610Z,21.09
2022-12-16T04:49:44.293Z,21.07
2022-12-16T04:52:30.986Z,21.07
2022-12-16T04:58:48.730Z,21.07
2022-12-16T05:01:33.935Z,21.07
2022-12-16T05:04:19.117Z,21.08
2022-12-16T05:07:00.608Z,21.07
2022-12-16T05:16:50.479Z,21.08
2022-12-16T05:19:35.650Z,21.09
2022-12-16T05:22:20.738Z,21.09
2022-12-16T05:32:21.963Z,21.12
2022-12-16T05:35:21.639Z,21.12
2022-12-16T05:38:06.628Z,21.11
2022-12-16T05:51:27.898Z,21.09
2022-12-16T05:54:13.241Z,21.09
2022-12-16T05:56:58.153Z,21.07
2022-12-16T05:59:43.271Z,21.09
2022-12-16T06:02:28.381Z,21.09
2022-12-16T06:05:13.561Z,21.10
2022-12-16T06:07:59.869Z,21.12
2022-12-16T06:10:44.871Z,21.12
2022-12-16T06:13:30.137Z,21.13
2022-12-16T06:16:15.428Z,21.13
2022-12-16T06:19:00.394Z,21.14
2022-12-16T06:21:45.558Z,21.15
2022-12-16T06:24:32.053Z,21.14
2022-12-16T06:27:43.239Z,21.16
2022-12-16T06:30:40.443Z,21.18
2022-12-16T06:33:25.903Z,21.18
2022-12-16T06:36:11.318Z,21.20
2022-12-16T06:38:56.187Z,21.20
2022-12-16T06:45:23.137Z,21.21
2022-12-16T06:48:08.714Z,21.22
2022-12-16T06:50:55.749Z,21.22
2022-12-16T06:53:40.786Z,21.21
2022-12-16T06:56:26.152Z,21.22
2022-12-16T06:59:11.226Z,21.21
2022-12-16T07:01:58.001Z,21.22
2022-12-16T07:04:43.741Z,21.22
2022-12-16T07:07:29.474Z,21.23
2022-12-16T07:31:46.214Z,21.26
2022-12-16T07:34:38.593Z,21.26
2022-12-16T07:37:25.953Z,21.28
2022-12-16T07:40:11.077Z,21.29
2022-12-16T07:42:56.300Z,21.32
2022-12-16T07:45:45.101Z,21.33
2022-12-16T07:48:30.870Z,21.33
2022-12-16T07:51:17.784Z,21.36
2022-12-16T07:54:02.784Z,21.36
2022-12-16T07:56:47.690Z,21.35
2022-12-16T07:59:32.581Z,21.36
2022-12-16T08:02:17.987Z,21.35
2022-12-16T08:04:59.678Z,21.34
2022-12-16T08:07:46.309Z,21.34
2022-12-16T08:10:37.332Z,21.36
2022-12-16T08:13:25.807Z,21.35
2022-12-16T08:16:11.118Z,21.35
2022-12-16T08:18:56.538Z,21.36
2022-12-16T08:21:41.923Z,21.37
2022-12-16T08:24:28.416Z,21.36
2022-12-16T08:30:45.255Z,21.38
2022-12-16T08:33:30.559Z,21.38
2022-12-16T08:36:16.207Z,21.38
2022-12-16T08:39:01.954Z,21.37
2022-12-16T08:45:19.477Z,21.40
2022-12-16T08:48:04.617Z,21.42
2022-12-16T08:50:49.518Z,21.43
2022-12-16T08:53:35.063Z,21.44
2022-12-16T08:56:39.622Z,21.44
2022-12-16T08:59:24.664Z,21.45
2022-12-16T09:02:11.410Z,21.45
2022-12-16T09:04:58.751Z,21.45
2022-12-16T09:07:44.572Z,21.43
2022-12-16T09:10:40.495Z,21.43
2022-12-16T09:13:26.559Z,21.41
2022-12-16T09:16:15.865Z,21.41
2022-12-16T09:19:05.601Z,21.40
2022-12-16T09:21:50.549Z,21.40
2022-12-16T09:24:35.710Z,21.40
2022-12-16T09:27:20.648Z,21.41
2022-12-16T09:30:05.908Z,21.41
2022-12-16T09:32:50.874Z,21.43
2022-12-16T09:35:37.730Z,21.43
2022-12-16T09:38:22.907Z,21.43
2022-12-16T09:41:26.801Z,21.44
2022-12-16T09:44:14.794Z,21.44
2022-12-16T09:47:08.042Z,21.44
2022-12-16T09:49:59.212Z,21.45
2022-12-16T09:52:46.206Z,21.48
2022-12-16T10:02:17.333Z,21.50
2022-12-16T10:05:04.272Z,21.49
2022-12-16T10:07:51.036Z,21.50
2022-12-16T10:10:36.861Z,21.49
2022-12-16T10:13:23.823Z,21.49
2022-12-16T10:16:11.424Z,21.50
2022-12-16T10:19:00.852Z,21.50
2022-12-16T10:21:46.805Z,21.50
2022-12-16T10:24:36.414Z,21.50
2022-12-16T10:27:23.203Z,21.50
2022-12-16T10:30:08.174Z,21.50
2022-12-16T10:32:55.700Z,21.52
2022-12-16T10:35:43.963Z,21.54
2022-12-16T10:38:33.317Z,21.59
2022-12-16T10:41:23.071Z,21.64
2022-12-16T10:44:23.160Z,21.72
2022-12-16T10:47:08.327Z,21.77
2022-12-16T10:49:54.848Z,21.76
2022-12-16T10:52:40.074Z,21.72
2022-12-16T10:55:26.500Z,21.71
2022-12-16T10:58:34.227Z,21.70
2022-12-16T11:01:24.456Z,21.70
2022-12-16T11:04:10.483Z,21.71
2022-12-16T11:07:01.678Z,21.71
2022-12-16T11:09:47.640Z,21.70
2022-12-16T11:16:04.158Z,21.70
2022-12-16T11:18:51.036Z,21.69
2022-12-16T11:21:36.722Z,21.69
2022-12-16T11:24:39.913Z,21.69
2022-12-16T11:34:30.503Z,21.69
2022-12-16T11:37:27.142Z,21.68
2022-12-16T11:40:12.893Z,21.69
2022-12-16T11:43:00.247Z,21.68
2022-12-16T11:45:49.497Z,21.68
2022-12-16T11:48:36.925Z,21.68
2022-12-16T11:51:23.676Z,21.69
2022-12-16T11:54:09.634Z,21.68
2022-12-16T12:03:48.544Z,21.68
2022-12-16T12:06:48.707Z,21.70
2022-12-16T12:09:34.291Z,21.71
2022-12-16T12:12:39.264Z,21.70
2022-12-16T12:15:28.197Z,21.71
2022-12-16T12:18:14.828Z,21.70
2022-12-16T12:21:01.470Z,21.70
2022-12-16T12:23:51.861Z,21.68
2022-12-16T12:26:56.549Z,21.69
2022-12-16T12:29:44.681Z,21.69
2022-12-16T12:32:34.844Z,21.69
2022-12-16T12:35:23.179Z,21.69
2022-12-16T12:38:09.693Z,21.67
2022-12-16T12:41:00.167Z,21.67
2022-12-16T12:47:24.864Z,21.68
2022-12-16T12:50:11.465Z,21.67
2022-12-16T12:53:04.836Z,21.67
2022-12-16T12:55:51.912Z,21.67
2022-12-16T12:58:39.041Z,21.65
2022-12-16T13:01:24.144Z,21.66
2022-12-16T13:04:10.111Z,21.64
2022-12-16T13:06:55.136Z,21.67
2022-12-16T13:09:41.841Z,21.68
2022-12-16T13:13:01.525Z,21.68
2022-12-16T13:15:54.865Z,21.68
2022-12-16T13:18:41.229Z,21.69
2022-12-16T13:21:41.313Z,21.70
2022-12-16T13:24:38.130Z,21.69
2022-12-16T13:30:46.532Z,21.68
2022-12-16T13:33:42.823Z,21.67
2022-12-16T13:36:29.211Z,21.67
2022-12-16T13:39:15.224Z,21.67
2022-12-16T13:45:34.420Z,21.66
2022-12-16T13:48:21.439Z,21.66
2022-12-16T13:51:17.857Z,21.65
2022-12-16T13:54:06.281Z,21.65
2022-12-16T14:03:29.972Z,21.65
2022-12-16T14:06:17.146Z,21.64
2022-12-16T14:09:02.143Z,21.64
2022-12-16T14:15:21.821Z,21.66
2022-12-16T14:18:16.613Z,21.66
2022-12-16T14:21:12.385Z,21.66
2022-12-16T14:24:00.130Z,21.67
2022-12-16T14:26:46.293Z,21.67
2022-12-16T14:29:34.972Z,21.66
2022-12-16T14:32:20.323Z,21.65
2022-12-16T14:35:07.062Z,21.65
2022-12-16T14:37:52.926Z,21.64
2022-12-16T14:40:40.712Z,21.64
2022-12-16T14:43:35.340Z,21.63
2022-12-16T14:46:21.837Z,21.63
2022-12-16T14:49:07.201Z,21.62
2022-12-16T14:51:53.548Z,21.63
2022-12-16T14:54:39.643Z,21.62
2022-12-16T14:57:28.244Z,21.62
2022-12-16T15:00:20.319Z,21.62
2022-12-16T15:03:06.786Z,21.62
2022-12-16T15:05:53.442Z,21.62
2022-12-16T15:08:38.662Z,21.62
2022-12-16T15:11:24.873Z,21.62
2022-12-16T15:14:11.956Z,21.62
2022-12-16T15:16:58.103Z,21.61
2022-12-16T15:19:43.371Z,21.60
2022-12-16T15:22:31.186Z,21.62
2022-12-16T15:25:16.168Z,21.64
2022-12-16T15:28:02.467Z,21.64
2022-12-16T15:30:54.435Z,21.65
2022-12-16T15:33:41.401Z,21.66
2022-12-16T15:36:31.305Z,21.65
2022-12-16T15:39:17.409Z,21.66
2022-12-16T15:42:05.330Z,21.66
2022-12-16T15:44:50.351Z,21.65
2022-12-16T15:47:41.259Z,21.65
2022-12-16T15:50:29.215Z,21.65
2022-12-16T15:53:16.189Z,21.64
2022-12-16T15:56:05.225Z,21.63
2022-12-16T15:59:09.637Z,21.64
2022-12-16T16:02:04.501Z,21.64
2022-12-16T16:04:52.089Z,21.64
2022-12-16T16:07:38.310Z,21.63
2022-12-16T16:10:27.691Z,21.64
2022-12-16T16:13:14.806Z,21.61
2022-12-16T16:15:59.649Z,21.65
2022-12-16T16:18:45.449Z,21.65
2022-12-16T16:21:32.950Z,21.64
2022-12-16T16:24:17.801Z,21.65
2022-12-16T16:27:00.033Z,21.64
2022-12-16T16:29:45.212Z,21.64
2022-12-16T16:32:31.063Z,21.66
2022-12-16T16:35:16.715Z,21.69
2022-12-16T16:38:04.059Z,21.68
2022-12-16T16:40:49.727Z,21.69
2022-12-16T16:43:36.005Z,21.70
2022-12-16T16:46:21.463Z,21.70
2022-12-16T16:49:07.210Z,21.71
2022-12-16T16:51:53.154Z,21.70
2022-12-16T16:54:39.838Z,21.70
2022-12-16T16:57:27.717Z,21.69
2022-12-16T17:00:12.922Z,21.69
2022-12-16T17:02:58.839Z,21.70
2022-12-16T17:05:43.904Z,21.69
2022-12-16T17:08:30.329Z,21.69
2022-12-16T17:11:16.864Z,21.70
2022-12-16T17:14:02.376Z,21.69
2022-12-16T17:16:47.452Z,21.68
2022-12-16T17:19:33.507Z,21.69
2022-12-16T17:22:19.135Z,21.68
2022-12-16T17:25:04.029Z,21.70
2022-12-16T17:27:51.279Z,21.71
2022-12-16T17:30:38.804Z,21.70
2022-12-16T17:33:27.599Z,21.70
2022-12-16T17:36:13.411Z,21.71
2022-12-16T17:39:01.280Z,21.69
2022-12-16T17:41:51.413Z,21.69
2022-12-16T17:44:38.596Z,21.70
2022-12-16T17:47:24.603Z,21.70
2022-12-16T17:50:09.888Z,21.70
2022-12-16T17:52:55.434Z,21.71
2022-12-16T17:55:36.883Z,21.71
2022-12-16T17:58:22.426Z,21.70
2022-12-16T18:01:09.136Z,21.71
2022-12-16T18:03:55.036Z,21.70
2022-12-16T18:06:40.227Z,21.70
2022-12-16T18:09:26.042Z,21.72
2022-12-16T18:12:11.307Z,21.71
2022-12-16T18:14:57.056Z,21.72
2022-12-16T18:17:44.777Z,21.72
2022-12-16T18:20:29.749Z,21.72
2022-12-16T18:23:15.731Z,21.72
2022-12-16T18:26:01.003Z,21.71
2022-12-16T18:28:46.629Z,21.72
2022-12-16T18:31:32.010Z,21.72
2022-12-16T18:34:21.173Z,21.75
2022-12-16T18:37:06.217Z,21.76
2022-12-16T18:39:52.326Z,21.77
2022-12-16T18:42:39.497Z,21.78
2022-12-16T18:45:25.927Z,21.79
2022-12-16T18:48:26.277Z,21.79
2022-12-16T18:51:13.208Z,21.79
2022-12-16T18:53:59.320Z,21.80
2022-12-16T18:56:44.441Z,21.80
2022-12-16T18:59:30.202Z,21.80
2022-12-16T19:02:15.738Z,21.80
2022-12-16T19:05:01.619Z,21.82
2022-12-16T19:07:48.297Z,21.82
2022-12-16T19:10:34.290Z,21.81
2022-12-16T19:13:20.266Z,21.81
2022-12-16T19:16:13.815Z,21.82
2022-12-16T19:19:00.377Z,21.82
2022-12-16T19:21:51.345Z,21.82
2022-12-16T19:24:40.374Z,21.82
2022-12-16T19:27:25.868Z,21.82
2022-12-16T19:30:12.432Z,21.83
2022-12-16T19:32:58.622Z,21.83
2022-12-16T19:35:45.447Z,21.84
2022-12-16T19:38:30.735Z,21.85
2022-12-16T19:41:18.070Z,21.84
2022-12-16T19:47:09.581Z,21.85
2022-12-16T19:49:56.166Z,21.85
2022-12-16T19:52:41.760Z,21.85
2022-12-16T19:55:27.653Z,21.87
2022-12-16T19:58:14.438Z,21.87
2022-12-16T20:01:00.556Z,21.88
2022-12-16T20:03:46.391Z,21.88
2022-12-16T20:06:32.597Z,21.90
2022-12-16T20:09:18.438Z,21.89
2022-12-16T20:12:03.395Z,21.90
2022-12-16T20:14:51.623Z,21.89
2022-12-16T20:17:36.466Z,21.90
2022-12-16T20:20:22.464Z,21.89
2022-12-16T20:23:07.707Z,21.89
2022-12-16T20:25:56.523Z,21.90
2022-12-16T20:28:42.212Z,21.90
2022-12-16T20:31:30.030Z,21.90
2022-12-16T20:34:15.771Z,21.89
2022-12-16T20:37:02.344Z,21.90
2022-12-16T20:42:56.409Z,21.91
2022-12-16T20:45:42.236Z,21.91
2022-12-16T20:48:31.485Z,21.91
2022-12-16T20:51:22.579Z,21.91
2022-12-16T20:54:11.358Z,21.91
2022-12-16T20:57:02.296Z,21.90
2022-12-16T20:59:48.799Z,21.90
2022-12-16T21:02:34.330Z,21.91
2022-12-16T21:05:21.616Z,21.92
2022-12-16T21:08:06.841Z,21.92
2022-12-16T21:10:56.132Z,21.92
2022-12-16T21:13:41.462Z,21.94
2022-12-16T21:14:28.416Z,21.85
2022-12-16T21:14:42.574Z,21.90
2022-12-16T21:16:27.141Z,21.94
2022-12-16T21:19:15.610Z,21.95
2022-12-16T21:22:03.497Z,21.95
2022-12-16T21:24:48.181Z,21.95
2022-12-16T21:27:30.299Z,21.94
2022-12-16T21:30:15.981Z,21.94
2022-12-16T21:33:01.996Z,21.94
2022-12-16T21:35:49.069Z,21.95
2022-12-16T21:38:35.674Z,21.94
2022-12-16T21:41:22.526Z,21.94
2022-12-16T21:44:08.929Z,21.94
2022-12-16T21:47:03.115Z,21.94
2022-12-16T21:49:47.918Z,21.95
2022-12-16T21:52:35.515Z,21.95
2022-12-16T21:55:22.706Z,21.94
2022-12-16T21:58:07.622Z,21.96
2022-12-16T22:03:58.665Z,21.95
2022-12-16T22:06:48.633Z,21.94
2022-12-16T22:09:34.099Z,21.94
2022-12-16T22:12:21.339Z,21.93
2022-12-16T22:15:06.660Z,21.94
2022-12-16T22:20:58.654Z,21.95
2022-12-16T22:23:46.526Z,21.95
2022-12-16T22:26:32.379Z,21.95
2022-12-16T22:29:19.173Z,21.96
2022-12-16T22:32:04.751Z,21.97
2022-12-16T22:34:51.232Z,21.97
2022-12-16T22:36:22.085Z,21.94
2022-12-16T22:36:22.178Z,21.95
2022-12-16T22:37:37.601Z,21.95
2022-12-16T22:40:23.315Z,21.96
2022-12-16T22:43:09.506Z,21.94
2022-12-16T22:46:00.533Z,21.94
2022-12-16T22:48:45.555Z,21.94
2022-12-16T22:51:31.208Z,21.94
2022-12-16T22:54:16.530Z,21.93
2022-12-16T22:57:02.536Z,21.94
2022-12-16T22:59:47.714Z,21.95
2022-12-16T23:02:34.876Z,21.94
2022-12-16T23:05:27.183Z,21.94
2022-12-16T23:08:13.131Z,21.94
2022-12-16T23:10:58.425Z,21.94
2022-12-16T23:13:44.475Z,21.94
2022-12-16T23:16:30.036Z,21.95
2022-12-16T23:19:16.926Z,21.94
2022-12-16T23:22:02.133Z,21.97
2022-12-16T23:24:47.406Z,21.96
2022-12-16T23:27:32.294Z,21.97
2022-12-16T23:30:17.393Z,21.98
2022-12-16T23:33:16.968Z,21.98
2022-12-16T23:36:03.497Z,21.97
2022-12-16T23:38:48.620Z,21.98
2022-12-16T23:41:34.041Z,21.98
2022-12-16T23:47:40.740Z,21.97
2022-12-16T23:50:26.208Z,21.94
2022-12-16T23:53:21.234Z,21.96
2022-12-16T23:56:06.279Z,21.96
